Time;durP1;ratioP1;P1;durP2;ratioP2;P2;SDS_P1;SDS_P2;PMS_P1;PMS_P2;Temp;Humidity;BMP_temperature;BMP_pressure;BME280_temperature;BME280_humidity;BME280_pressure;Samples;Min_cycle;Max_cycle;Signal;HPM_P1;HPM_P2
2021/07/27 00:01:19;;;;;;;110.93;52.17;;;;;;;;;;5050817;28;20115;-64
2021/07/27 00:03:46;;;;;;;110.30;52.22;;;;;;;;;;5049329;28;20040;-64
2021/07/27 00:06:12;;;;;;;108.65;51.42;;;;;;;;;;5051347;28;20083;-64
2021/07/27 00:08:39;;;;;;;118.28;52.63;;;;;;;;;;5049125;28;20036;-64
2021/07/27 00:11:08;;;;;;;109.20;50.38;;;;;;;;;;5050876;28;20032;-64
2021/07/27 00:13:35;;;;;;;104.90;51.00;;;;;;;;;;5054455;28;20098;-65
2021/07/27 00:16:01;;;;;;;107.35;52.85;;;;;;;;;;5048813;28;20065;-63
2021/07/27 00:18:27;;;;;;;114.50;55.08;;;;;;;;;;5050610;28;20065;-63
2021/07/27 00:20:53;;;;;;;105.13;52.22;;;;;;;;;;5049885;28;20021;-64
2021/07/27 00:23:19;;;;;;;115.85;56.55;;;;;;;;;;5049492;28;20040;-63
2021/07/27 00:25:45;;;;;;;106.07;53.15;;;;;;;;;;5049136;28;20024;-63
2021/07/27 00:28:12;;;;;;;107.55;51.28;;;;;;;;;;5050487;28;20116;-63
2021/07/27 00:30:38;;;;;;;107.97;52.47;;;;;;;;;;5051347;28;20038;-63
2021/07/27 00:33:04;;;;;;;106.50;50.30;;;;;;;;;;5055092;28;20021;-64
2021/07/27 00:35:32;;;;;;;102.00;49.13;;;;;;;;;;5051738;28;20136;-64
2021/07/27 00:38:12;;;;;;;102.95;52.75;;;;;;;;;;5052809;28;20017;-64
2021/07/27 00:40:39;;;;;;;96.93;46.80;;;;;;;;;;5054512;28;20115;-63
2021/07/27 00:43:06;;;;;;;86.20;44.05;;;;;;;;;;5053538;28;20028;-64
2021/07/27 00:45:32;;;;;;;85.82;45.80;;;;;;;;;;5052732;28;20036;-64
2021/07/27 00:47:58;;;;;;;87.88;43.53;;;;;;;;;;5053939;28;20025;-63
2021/07/27 00:50:24;;;;;;;87.10;43.78;;;;;;;;;;5050385;28;20594;-64
2021/07/27 00:52:51;;;;;;;81.20;44.78;;;;;;;;;;5043559;28;20025;-64
2021/07/27 00:55:17;;;;;;;83.63;41.35;;;;;;;;;;5044191;28;20028;-63
2021/07/27 00:57:44;;;;;;;74.40;38.38;;;;;;;;;;5053285;28;20032;-64
2021/07/27 01:00:11;;;;;;;80.85;39.42;;;;;;;;;;5053626;28;20025;-64
2021/07/27 01:02:37;;;;;;;64.65;35.67;;;;;;;;;;5051647;28;20033;-64
2021/07/27 01:05:03;;;;;;;68.68;37.17;;;;;;;;;;5051337;28;20021;-64
2021/07/27 01:07:29;;;;;;;69.55;36.72;;;;;;;;;;5053952;28;20025;-64
2021/07/27 01:09:55;;;;;;;71.00;37.80;;;;;;;;;;5053292;28;20028;-64
2021/07/27 01:12:21;;;;;;;77.95;38.30;;;;;;;;;;5053164;28;20036;-64
2021/07/27 01:14:48;;;;;;;72.10;36.20;;;;;;;;;;5047113;28;20096;-63
2021/07/27 01:17:14;;;;;;;72.07;37.35;;;;;;;;;;5052985;28;20029;-64
2021/07/27 01:43:54;;;;;;;77.40;37.83;;;;;;;;;;5052536;28;20213;-63
2021/07/27 01:46:24;;;;;;;72.18;37.33;;;;;;;;;;5051621;28;20542;-64
2021/07/27 01:48:51;;;;;;;69.35;36.80;;;;;;;;;;5053225;28;20075;-64
2021/07/27 01:51:17;;;;;;;75.22;38.35;;;;;;;;;;5052283;28;20485;-64
2021/07/27 01:53:46;;;;;;;70.60;35.53;;;;;;;;;;5052605;28;20025;-63
2021/07/27 01:56:12;;;;;;;71.57;35.70;;;;;;;;;;5051504;28;20108;-64
2021/07/27 01:58:39;;;;;;;72.93;37.13;;;;;;;;;;5052385;28;20052;-64
2021/07/27 02:01:05;;;;;;;75.68;36.30;;;;;;;;;;5053105;28;20416;-64
2021/07/27 02:03:31;;;;;;;70.85;35.47;;;;;;;;;;5052178;28;20559;-63
2021/07/27 02:05:57;;;;;;;68.97;35.85;;;;;;;;;;5050768;28;20080;-63
2021/07/27 02:08:23;;;;;;;77.88;34.15;;;;;;;;;;5052188;28;20025;-63
2021/07/27 02:10:56;;;;;;;74.68;34.00;;;;;;;;;;5051640;28;20451;-64
2021/07/27 02:13:30;;;;;;;78.68;37.30;;;;;;;;;;5052341;28;20021;-63
2021/07/27 02:15:58;;;;;;;72.32;36.88;;;;;;;;;;5043536;28;20384;-63
2021/07/27 02:18:24;;;;;;;68.72;36.05;;;;;;;;;;5052482;28;20029;-64
2021/07/27 02:20:54;;;;;;;61.95;36.28;;;;;;;;;;5051548;28;20033;-63
2021/07/27 02:23:20;;;;;;;82.95;37.85;;;;;;;;;;5051723;28;20028;-63
2021/07/27 02:25:46;;;;;;;65.78;34.97;;;;;;;;;;5049023;28;20120;-64
2021/07/27 02:28:13;;;;;;;63.60;36.38;;;;;;;;;;5052158;28;20029;-64
2021/07/27 02:30:45;;;;;;;68.07;36.30;;;;;;;;;;5051234;28;20032;-63
2021/07/27 02:33:11;;;;;;;75.35;38.67;;;;;;;;;;5047851;28;20040;-64
2021/07/27 02:35:39;;;;;;;75.07;37.35;;;;;;;;;;5050702;28;20061;-63
2021/07/27 02:38:05;;;;;;;70.50;38.28;;;;;;;;;;5050313;28;20484;-64
2021/07/27 02:40:35;;;;;;;71.50;38.92;;;;;;;;;;5051912;28;20033;-64
2021/07/27 02:43:03;;;;;;;68.03;35.75;;;;;;;;;;5051965;28;20040;-64
2021/07/27 02:45:29;;;;;;;70.85;40.50;;;;;;;;;;5049949;28;20017;-63
2021/07/27 02:47:55;;;;;;;70.55;37.47;;;;;;;;;;5051393;28;20112;-63
2021/07/27 02:50:21;;;;;;;65.55;35.58;;;;;;;;;;5051411;28;20087;-63
2021/07/27 02:52:48;;;;;;;72.10;39.65;;;;;;;;;;5049607;28;20100;-63
2021/07/27 02:55:14;;;;;;;70.88;37.58;;;;;;;;;;5048350;28;20055;-64
2021/07/27 02:57:40;;;;;;;63.47;35.10;;;;;;;;;;5036111;28;20028;-63
2021/07/27 03:00:07;;;;;;;62.15;35.08;;;;;;;;;;5051749;28;20032;-63
2021/07/27 03:02:33;;;;;;;65.82;37.72;;;;;;;;;;5051072;28;20110;-64
2021/07/27 03:04:59;;;;;;;62.00;35.70;;;;;;;;;;5049521;28;20497;-64
2021/07/27 03:07:34;;;;;;;64.25;34.33;;;;;;;;;;5051477;28;20427;-64
2021/07/27 03:12:44;;;;;;;60.58;34.75;;;;;;;;;;5038588;28;20029;-63
2021/07/27 03:15:10;;;;;;;66.35;35.83;;;;;;;;;;5049642;28;20009;-64
2021/07/27 03:17:37;;;;;;;64.13;36.28;;;;;;;;;;5050048;28;20070;-64
2021/07/27 03:20:04;;;;;;;57.38;32.55;;;;;;;;;;5048775;28;20028;-64
2021/07/27 03:22:30;;;;;;;62.08;35.30;;;;;;;;;;5050992;28;20168;-64
2021/07/27 03:24:56;;;;;;;62.33;34.78;;;;;;;;;;5049427;28;20056;-63
2021/07/27 03:27:22;;;;;;;72.28;36.83;;;;;;;;;;5050185;28;20025;-63
2021/07/27 03:29:48;;;;;;;63.65;32.65;;;;;;;;;;5051710;28;20032;-64
2021/07/27 03:32:14;;;;;;;61.63;34.67;;;;;;;;;;5050268;28;20020;-64
2021/07/27 03:34:41;;;;;;;58.30;33.30;;;;;;;;;;5050731;28;20033;-64
2021/07/27 03:37:10;;;;;;;61.13;32.35;;;;;;;;;;5049888;28;20115;-63
2021/07/27 03:39:36;;;;;;;57.03;32.47;;;;;;;;;;5050596;28;20040;-64
2021/07/27 03:42:02;;;;;;;52.22;32.28;;;;;;;;;;5063718;28;20025;-64
2021/07/27 03:44:29;;;;;;;59.80;31.33;;;;;;;;;;5050280;28;20057;-64
2021/07/27 03:46:55;;;;;;;61.35;32.35;;;;;;;;;;5047171;28;20029;-64
2021/07/27 03:49:21;;;;;;;56.15;31.75;;;;;;;;;;5050678;28;20037;-64
2021/07/27 03:51:47;;;;;;;61.38;33.63;;;;;;;;;;5051066;28;20033;-64
2021/07/27 03:54:13;;;;;;;57.72;31.98;;;;;;;;;;5050873;28;20028;-64
2021/07/27 03:56:40;;;;;;;55.70;30.90;;;;;;;;;;5049237;28;20029;-64
2021/07/27 03:59:06;;;;;;;58.00;32.63;;;;;;;;;;5050337;28;20108;-64
2021/07/27 04:01:32;;;;;;;57.25;30.63;;;;;;;;;;5050660;28;20040;-64
2021/07/27 04:03:58;;;;;;;56.75;30.55;;;;;;;;;;5048692;28;20028;-64
2021/07/27 04:06:24;;;;;;;50.85;28.05;;;;;;;;;;5052234;28;20410;-63
2021/07/27 04:08:50;;;;;;;54.50;29.52;;;;;;;;;;5054837;28;20410;-64
2021/07/27 04:11:16;;;;;;;58.92;31.17;;;;;;;;;;5051614;28;20493;-64
2021/07/27 04:13:42;;;;;;;50.80;30.15;;;;;;;;;;5054378;28;20043;-64
2021/07/27 04:16:08;;;;;;;53.55;30.65;;;;;;;;;;5051556;28;20115;-64
2021/07/27 04:18:34;;;;;;;52.05;30.92;;;;;;;;;;5052881;28;20049;-64
2021/07/27 04:21:01;;;;;;;54.75;30.13;;;;;;;;;;5055644;28;20067;-64
2021/07/27 04:23:27;;;;;;;56.45;30.63;;;;;;;;;;5055691;28;20557;-64
2021/07/27 04:25:53;;;;;;;54.05;30.98;;;;;;;;;;5051506;28;20025;-65
2021/07/27 04:28:20;;;;;;;60.00;33.88;;;;;;;;;;5052900;28;20051;-64
2021/07/27 04:30:46;;;;;;;61.28;32.10;;;;;;;;;;5049369;28;20744;-64
2021/07/27 04:33:12;;;;;;;56.55;32.58;;;;;;;;;;5049228;28;20508;-64
2021/07/27 04:35:38;;;;;;;61.72;32.35;;;;;;;;;;5052866;28;20520;-64
2021/07/27 04:38:05;;;;;;;53.42;32.38;;;;;;;;;;5061381;28;20024;-64
2021/07/27 04:40:31;;;;;;;59.20;32.13;;;;;;;;;;5056082;28;20433;-64
2021/07/27 04:42:58;;;;;;;68.93;33.15;;;;;;;;;;5054273;28;20027;-63
2021/07/27 04:45:27;;;;;;;60.38;33.42;;;;;;;;;;5053031;28;20404;-64
2021/07/27 04:47:54;;;;;;;59.78;32.88;;;;;;;;;;5050305;28;20758;-64
2021/07/27 04:50:20;;;;;;;65.07;33.65;;;;;;;;;;5053829;28;20051;-63
2021/07/27 04:52:52;;;;;;;58.42;34.70;;;;;;;;;;5053234;28;20499;-64
2021/07/27 04:55:18;;;;;;;60.35;32.95;;;;;;;;;;5051728;28;20083;-64
2021/07/27 04:57:44;;;;;;;58.95;33.25;;;;;;;;;;5045707;28;20385;-64
2021/07/27 05:00:19;;;;;;;59.05;34.33;;;;;;;;;;5053602;28;20033;-64
2021/07/27 05:02:45;;;;;;;59.88;34.60;;;;;;;;;;5052165;28;20500;-64
2021/07/27 05:05:11;;;;;;;63.20;33.53;;;;;;;;;;5052525;28;20036;-64
2021/07/27 05:07:37;;;;;;;67.00;35.75;;;;;;;;;;5053663;28;20037;-64
2021/07/27 05:10:04;;;;;;;63.10;33.80;;;;;;;;;;5053600;28;20021;-64
2021/07/27 05:12:30;;;;;;;58.63;32.97;;;;;;;;;;5051010;28;20021;-64
2021/07/27 05:14:56;;;;;;;57.97;33.00;;;;;;;;;;5050289;28;20013;-64
2021/07/27 05:17:22;;;;;;;61.08;34.40;;;;;;;;;;5053046;28;20075;-64
2021/07/27 05:19:52;;;;;;;56.33;33.92;;;;;;;;;;5052498;28;20021;-64
2021/07/27 05:22:20;;;;;;;66.05;36.10;;;;;;;;;;5045887;28;20412;-64
2021/07/27 05:24:46;;;;;;;61.63;33.58;;;;;;;;;;5049553;28;20176;-64
2021/07/27 05:27:12;;;;;;;61.50;33.40;;;;;;;;;;5051987;28;20029;-64
2021/07/27 05:29:38;;;;;;;63.05;33.40;;;;;;;;;;5052580;28;20079;-64
2021/07/27 05:32:05;;;;;;;54.50;32.30;;;;;;;;;;5051686;28;20090;-64
2021/07/27 05:34:31;;;;;;;60.90;31.88;;;;;;;;;;5051909;28;20025;-64
2021/07/27 05:36:57;;;;;;;55.47;32.50;;;;;;;;;;5050801;28;20049;-64
2021/07/27 05:39:23;;;;;;;66.65;35.00;;;;;;;;;;5052137;28;20032;-64
2021/07/27 05:41:49;;;;;;;60.67;33.70;;;;;;;;;;5052201;28;20032;-64
2021/07/27 05:44:15;;;;;;;68.22;36.03;;;;;;;;;;5054338;28;20024;-64
2021/07/27 05:46:41;;;;;;;63.60;34.05;;;;;;;;;;5065517;28;20040;-65
2021/07/27 05:49:10;;;;;;;78.40;34.42;;;;;;;;;;5051352;28;20504;-64
2021/07/27 05:51:36;;;;;;;57.67;34.45;;;;;;;;;;5050022;28;20025;-64
2021/07/27 05:54:02;;;;;;;58.85;35.58;;;;;;;;;;5049677;28;20053;-64
2021/07/27 05:56:28;;;;;;;63.72;34.58;;;;;;;;;;5047706;28;20013;-64
2021/07/27 05:58:54;;;;;;;60.63;33.97;;;;;;;;;;5051041;28;20021;-64
2021/07/27 06:01:20;;;;;;;62.63;34.20;;;;;;;;;;5044761;28;20038;-64
2021/07/27 06:03:46;;;;;;;67.45;37.38;;;;;;;;;;5050317;28;20038;-64
2021/07/27 06:06:12;;;;;;;64.47;35.97;;;;;;;;;;5050221;28;20021;-64
2021/07/27 06:08:38;;;;;;;64.65;33.72;;;;;;;;;;5051754;28;20431;-64
2021/07/27 06:11:05;;;;;;;70.05;35.22;;;;;;;;;;5066318;28;20448;-64
2021/07/27 06:13:32;;;;;;;88.60;40.20;;;;;;;;;;5049183;28;20035;-64
2021/07/27 06:16:02;;;;;;;84.78;40.65;;;;;;;;;;5052040;28;20044;-63
2021/07/27 06:18:28;;;;;;;82.60;40.70;;;;;;;;;;5052230;28;20115;-63
2021/07/27 06:20:54;;;;;;;66.97;36.28;;;;;;;;;;5056081;28;20064;-63
2021/07/27 06:23:20;;;;;;;68.13;38.15;;;;;;;;;;5056559;28;20028;-64
2021/07/27 06:25:46;;;;;;;65.47;35.85;;;;;;;;;;5057166;28;20040;-64
2021/07/27 06:28:12;;;;;;;63.63;35.50;;;;;;;;;;5054518;28;20029;-64
2021/07/27 06:30:38;;;;;;;59.25;36.35;;;;;;;;;;5057671;28;20024;-64
2021/07/27 06:33:04;;;;;;;69.50;36.47;;;;;;;;;;5059330;28;20063;-64
2021/07/27 06:35:30;;;;;;;64.90;35.78;;;;;;;;;;5057186;28;20052;-64
2021/07/27 06:37:56;;;;;;;55.83;34.60;;;;;;;;;;5051883;28;20040;-64
2021/07/27 06:40:22;;;;;;;65.00;36.75;;;;;;;;;;5050443;28;20025;-64
2021/07/27 06:42:48;;;;;;;60.63;34.90;;;;;;;;;;5056119;28;20408;-64
2021/07/27 06:45:14;;;;;;;67.60;37.17;;;;;;;;;;5053666;28;20043;-64
2021/07/27 06:47:41;;;;;;;68.93;37.63;;;;;;;;;;5058646;28;20033;-64
2021/07/27 06:50:07;;;;;;;63.33;35.70;;;;;;;;;;5050825;28;20055;-64
2021/07/27 06:52:33;;;;;;;65.90;37.22;;;;;;;;;;5050631;28;20024;-64
2021/07/27 06:54:59;;;;;;;59.95;35.72;;;;;;;;;;5050031;28;20036;-64
2021/07/27 06:57:27;;;;;;;61.10;35.85;;;;;;;;;;5053782;28;20100;-64
2021/07/27 06:59:53;;;;;;;62.42;36.30;;;;;;;;;;5051234;28;20585;-63
2021/07/27 07:02:19;;;;;;;66.78;37.00;;;;;;;;;;5048851;28;20029;-64
2021/07/27 07:04:45;;;;;;;66.15;36.97;;;;;;;;;;5049032;28;20025;-64
2021/07/27 07:07:11;;;;;;;65.05;37.67;;;;;;;;;;5053867;28;20086;-63
2021/07/27 07:09:37;;;;;;;71.25;36.90;;;;;;;;;;5055275;28;20040;-63
2021/07/27 07:12:07;;;;;;;68.18;39.13;;;;;;;;;;5048633;28;20033;-64
2021/07/27 07:14:34;;;;;;;70.30;38.05;;;;;;;;;;5050766;28;20075;-63
2021/07/27 07:17:00;;;;;;;75.65;41.00;;;;;;;;;;5049521;28;20029;-63
2021/07/27 07:19:27;;;;;;;78.13;39.25;;;;;;;;;;5051098;28;20070;-63
2021/07/27 07:21:53;;;;;;;69.03;38.33;;;;;;;;;;5048538;28;20040;-63
2021/07/27 07:24:19;;;;;;;64.20;38.60;;;;;;;;;;5050377;28;20033;-64
2021/07/27 07:26:46;;;;;;;66.85;36.97;;;;;;;;;;5047976;28;20032;-63
2021/07/27 07:29:12;;;;;;;72.10;38.78;;;;;;;;;;5041920;28;20252;-63
2021/07/27 07:31:38;;;;;;;60.92;36.70;;;;;;;;;;5050591;28;20083;-63
2021/07/27 07:34:04;;;;;;;65.85;36.40;;;;;;;;;;5051004;28;20029;-63
2021/07/27 07:36:30;;;;;;;63.70;37.67;;;;;;;;;;5047964;28;20040;-63
2021/07/27 07:38:56;;;;;;;66.18;37.40;;;;;;;;;;5051107;28;20025;-64
2021/07/27 07:41:24;;;;;;;61.10;34.17;;;;;;;;;;5049521;28;20116;-63
2021/07/27 07:43:50;;;;;;;68.22;37.25;;;;;;;;;;5050940;28;20055;-63
2021/07/27 07:46:16;;;;;;;63.38;38.03;;;;;;;;;;5048122;28;20061;-63
2021/07/27 07:48:42;;;;;;;65.95;38.25;;;;;;;;;;5050954;28;20481;-63
2021/07/27 07:51:08;;;;;;;65.95;37.83;;;;;;;;;;5049697;28;20036;-63
2021/07/27 07:53:34;;;;;;;71.22;38.60;;;;;;;;;;5050317;28;20078;-63
2021/07/27 07:56:00;;;;;;;75.05;42.20;;;;;;;;;;5049311;28;20040;-63
2021/07/27 07:58:26;;;;;;;38.28;13.32;;;;;;;;;;5061782;28;20045;-62
2021/07/27 08:00:52;;;;;;;40.33;9.52;;;;;;;;;;5060965;28;20032;-62
2021/07/27 08:03:18;;;;;;;32.97;7.03;;;;;;;;;;5047648;28;20444;-64
2021/07/27 08:05:44;;;;;;;38.75;7.28;;;;;;;;;;5049015;28;20017;-63
2021/07/27 08:08:10;;;;;;;33.80;7.07;;;;;;;;;;5048476;28;20051;-64
2021/07/27 08:10:36;;;;;;;39.30;7.55;;;;;;;;;;5047259;28;20025;-64
2021/07/27 08:13:03;;;;;;;34.50;8.27;;;;;;;;;;5050767;28;20040;-64
2021/07/27 08:15:29;;;;;;;28.27;7.00;;;;;;;;;;5049652;28;20028;-64
2021/07/27 08:17:55;;;;;;;30.70;6.50;;;;;;;;;;5049867;28;20111;-64
2021/07/27 08:20:22;;;;;;;32.05;6.88;;;;;;;;;;5046010;28;20035;-63
2021/07/27 08:22:48;;;;;;;35.30;8.98;;;;;;;;;;5047404;28;20029;-64
2021/07/27 08:25:18;;;;;;;23.40;6.38;;;;;;;;;;5057143;28;20043;-64
2021/07/27 08:27:45;;;;;;;15.95;5.72;;;;;;;;;;5054907;28;20047;-64
2021/07/27 08:30:13;;;;;;;25.92;6.28;;;;;;;;;;5048728;28;20032;-64
2021/07/27 08:32:43;;;;;;;17.48;5.38;;;;;;;;;;5045730;28;20116;-65
2021/07/27 08:35:10;;;;;;;13.65;3.90;;;;;;;;;;5046837;28;20087;-65
2021/07/27 08:37:36;;;;;;;19.60;5.65;;;;;;;;;;5047606;28;20022;-65
2021/07/27 08:40:02;;;;;;;19.48;4.80;;;;;;;;;;5046592;28;20071;-66
2021/07/27 08:42:29;;;;;;;25.90;5.45;;;;;;;;;;5045137;28;20512;-66
2021/07/27 08:44:58;;;;;;;21.05;5.57;;;;;;;;;;5046510;28;20029;-66
2021/07/27 08:47:24;;;;;;;17.00;4.88;;;;;;;;;;5048480;28;20550;-66
2021/07/27 08:49:51;;;;;;;33.92;7.25;;;;;;;;;;5048516;28;20082;-66
2021/07/27 08:52:17;;;;;;;29.88;6.07;;;;;;;;;;5050660;28;20032;-66
2021/07/27 08:54:43;;;;;;;26.80;6.93;;;;;;;;;;5052649;28;20036;-65
2021/07/27 08:57:14;;;;;;;25.65;5.68;;;;;;;;;;5048889;28;20028;-66
2021/07/27 08:59:40;;;;;;;25.05;6.75;;;;;;;;;;5052597;28;20024;-65
2021/07/27 09:02:06;;;;;;;19.13;7.20;;;;;;;;;;5050069;28;20120;-66
2021/07/27 09:04:32;;;;;;;30.33;7.20;;;;;;;;;;5050994;28;20435;-65
2021/07/27 09:06:59;;;;;;;19.00;6.60;;;;;;;;;;5049908;28;20079;-65
2021/07/27 09:09:29;;;;;;;19.58;5.90;;;;;;;;;;5051922;28;20017;-65
2021/07/27 09:11:56;;;;;;;20.48;6.00;;;;;;;;;;5052680;28;20029;-65
2021/07/27 09:14:22;;;;;;;24.05;6.72;;;;;;;;;;5049575;28;20040;-66
2021/07/27 09:16:56;;;;;;;20.40;6.13;;;;;;;;;;5050610;28;20492;-66
2021/07/27 09:19:22;;;;;;;23.17;7.05;;;;;;;;;;5050448;28;20577;-66
2021/07/27 09:21:48;;;;;;;19.15;5.68;;;;;;;;;;5049470;28;20681;-66
2021/07/27 09:24:20;;;;;;;18.48;5.70;;;;;;;;;;5051208;28;20029;-66
2021/07/27 09:26:46;;;;;;;;;;;;;;;;;;5053226;28;20029;-65
2021/07/27 09:29:12;;;;;;;14.35;6.57;;;;;;;;;;5049974;28;19954;-65
2021/07/27 09:31:39;;;;;;;14.05;5.97;;;;;;;;;;5051930;28;20392;-65
2021/07/27 09:34:11;;;;;;;10.32;5.00;;;;;;;;;;5053980;28;20026;-66
2021/07/27 09:36:38;;;;;;;12.93;5.80;;;;;;;;;;5045214;28;20091;-66
2021/07/27 09:39:05;;;;;;;15.65;5.75;;;;;;;;;;5052016;28;20025;-67
2021/07/27 09:41:31;;;;;;;11.20;6.80;;;;;;;;;;5053677;28;20621;-65
2021/07/27 09:43:57;;;;;;;14.32;5.40;;;;;;;;;;5044420;28;20025;-64
2021/07/27 09:46:27;;;;;;;12.73;4.30;;;;;;;;;;5048053;28;20116;-65
2021/07/27 09:48:53;;;;;;;12.68;4.70;;;;;;;;;;5052097;28;20028;-65
2021/07/27 09:51:22;;;;;;;20.30;4.63;;;;;;;;;;5047999;28;20040;-65
2021/07/27 09:53:49;;;;;;;11.93;4.68;;;;;;;;;;5044064;28;20083;-65
2021/07/27 09:56:15;;;;;;;13.70;4.82;;;;;;;;;;5043485;28;20013;-65
2021/07/27 09:58:42;;;;;;;14.65;4.82;;;;;;;;;;5047265;28;20052;-65
2021/07/27 10:01:09;;;;;;;12.05;4.30;;;;;;;;;;5047631;28;20668;-65
2021/07/27 10:03:46;;;;;;;18.23;5.13;;;;;;;;;;5046107;28;20029;-64
2021/07/27 10:06:19;;;;;;;9.20;4.43;;;;;;;;;;5045523;28;20071;-65
2021/07/27 10:08:53;;;;;;;12.10;5.00;;;;;;;;;;5049641;28;20021;-64
2021/07/27 10:11:19;;;;;;;10.52;4.80;;;;;;;;;;5044968;28;20072;-64
2021/07/27 10:13:51;;;;;;;16.90;5.28;;;;;;;;;;5044715;28;20032;-64
2021/07/27 10:16:25;;;;;;;16.58;5.25;;;;;;;;;;5045724;28;20108;-64
2021/07/27 10:18:52;;;;;;;9.60;5.28;;;;;;;;;;5046226;28;20064;-65
2021/07/27 10:21:25;;;;;;;19.10;5.90;;;;;;;;;;5047043;28;20025;-64
2021/07/27 10:23:51;;;;;;;15.30;5.22;;;;;;;;;;5047341;28;20075;-65
2021/07/27 10:26:28;;;;;;;14.77;5.32;;;;;;;;;;5041960;28;20028;-64
2021/07/27 10:28:55;;;;;;;13.45;5.15;;;;;;;;;;5044716;28;20032;-63
2021/07/27 10:31:31;;;;;;;15.60;6.32;;;;;;;;;;5043172;28;20731;-64
2021/07/27 10:33:57;;;;;;;10.20;4.78;;;;;;;;;;5041012;28;20065;-64
2021/07/27 10:36:27;;;;;;;16.58;5.75;;;;;;;;;;5043810;28;20075;-64
2021/07/27 10:38:54;;;;;;;13.57;5.43;;;;;;;;;;5045025;28;20139;-64
2021/07/27 10:41:20;;;;;;;10.95;5.60;;;;;;;;;;5052118;28;20033;-65
2021/07/27 10:43:46;;;;;;;14.75;6.40;;;;;;;;;;5049594;28;20135;-64
2021/07/27 10:46:12;;;;;;;14.18;5.47;;;;;;;;;;5045467;28;20041;-65
2021/07/27 10:48:39;;;;;;;14.68;6.25;;;;;;;;;;5049522;28;20497;-64
2021/07/27 10:51:06;;;;;;;12.15;5.53;;;;;;;;;;5049494;28;20025;-63
2021/07/27 10:53:33;;;;;;;12.77;5.80;;;;;;;;;;5044813;28;20090;-65
2021/07/27 10:56:09;;;;;;;15.98;5.38;;;;;;;;;;5043060;28;20522;-65
2021/07/27 10:58:36;;;;;;;20.38;7.50;;;;;;;;;;5044757;28;22467;-65
2021/07/27 11:01:08;;;;;;;10.75;5.25;;;;;;;;;;5054815;28;20060;-64
2021/07/27 11:03:35;;;;;;;18.70;6.13;;;;;;;;;;5046490;28;20029;-64
2021/07/27 11:06:01;;;;;;;13.07;6.07;;;;;;;;;;5042396;28;20056;-64
2021/07/27 11:08:27;;;;;;;13.50;5.82;;;;;;;;;;5047534;28;20037;-64
2021/07/27 11:11:07;;;;;;;14.30;6.40;;;;;;;;;;5044872;28;20585;-64
2021/07/27 11:13:33;;;;;;;14.00;6.38;;;;;;;;;;5047675;28;20029;-64
2021/07/27 11:16:00;;;;;;;13.50;6.30;;;;;;;;;;5045915;28;20044;-64
2021/07/27 11:18:30;;;;;;;18.25;6.25;;;;;;;;;;5049200;28;20037;-63
2021/07/27 11:20:57;;;;;;;13.07;7.00;;;;;;;;;;5049515;28;20444;-65
2021/07/27 11:23:23;;;;;;;17.23;6.70;;;;;;;;;;5049621;28;20588;-65
2021/07/27 11:25:52;;;;;;;14.27;7.10;;;;;;;;;;5046819;28;20013;-65
2021/07/27 11:28:18;;;;;;;14.60;7.50;;;;;;;;;;5046681;28;20027;-65
2021/07/27 11:30:45;;;;;;;19.33;7.55;;;;;;;;;;5044807;28;20036;-64
2021/07/27 11:33:12;;;;;;;13.65;8.00;;;;;;;;;;5043111;28;20017;-64
2021/07/27 11:35:42;;;;;;;19.25;7.40;;;;;;;;;;5042501;28;20415;-64
2021/07/27 11:38:08;;;;;;;14.52;7.45;;;;;;;;;;5044169;28;20036;-64
2021/07/27 11:40:35;;;;;;;16.60;9.30;;;;;;;;;;5042979;28;20981;-64
2021/07/27 11:43:05;;;;;;;16.33;7.47;;;;;;;;;;5046033;28;20124;-63
2021/07/27 11:45:32;;;;;;;14.68;8.80;;;;;;;;;;5041383;28;20108;-64
2021/07/27 11:47:58;;;;;;;17.95;9.05;;;;;;;;;;5043152;28;20495;-63
2021/07/27 11:50:29;;;;;;;17.08;9.13;;;;;;;;;;5041358;28;20075;-63
2021/07/27 11:53:05;;;;;;;17.98;8.90;;;;;;;;;;5043014;28;20033;-63
2021/07/27 11:55:32;;;;;;;18.08;10.25;;;;;;;;;;5038114;28;20111;-64
2021/07/27 11:57:58;;;;;;;17.00;10.13;;;;;;;;;;5042995;28;20032;-63
2021/07/27 12:00:24;;;;;;;16.83;9.95;;;;;;;;;;5044420;28;20025;-63
2021/07/27 12:02:50;;;;;;;18.63;10.35;;;;;;;;;;5039763;28;20041;-64
2021/07/27 12:05:16;;;;;;;19.48;10.27;;;;;;;;;;5042470;28;20021;-64
2021/07/27 12:07:44;;;;;;;17.75;10.23;;;;;;;;;;5041978;28;20043;-64
2021/07/27 12:10:11;;;;;;;20.67;9.57;;;;;;;;;;5045194;28;20572;-63
2021/07/27 12:12:37;;;;;;;17.13;10.85;;;;;;;;;;5043763;28;20029;-63
2021/07/27 12:15:04;;;;;;;21.27;10.20;;;;;;;;;;5042073;28;20607;-64
2021/07/27 12:17:30;;;;;;;17.58;10.07;;;;;;;;;;5040388;28;20045;-64
2021/07/27 12:19:56;;;;;;;19.40;10.00;;;;;;;;;;5044305;28;20056;-64
2021/07/27 12:22:22;;;;;;;19.02;10.70;;;;;;;;;;5040892;28;20032;-64
2021/07/27 12:24:48;;;;;;;21.13;10.43;;;;;;;;;;5040641;28;20029;-65
2021/07/27 12:27:14;;;;;;;18.55;10.60;;;;;;;;;;5049973;28;20033;-64
2021/07/27 12:29:40;;;;;;;22.35;10.65;;;;;;;;;;5051390;28;20021;-64
2021/07/27 12:32:07;;;;;;;20.52;10.48;;;;;;;;;;5056876;28;20029;-64
2021/07/27 12:34:33;;;;;;;20.65;12.30;;;;;;;;;;5049431;28;20025;-64
2021/07/27 12:36:59;;;;;;;22.50;12.30;;;;;;;;;;5043370;28;20099;-64
2021/07/27 12:39:25;;;;;;;18.90;11.52;;;;;;;;;;5046606;28;20028;-64
2021/07/27 12:41:52;;;;;;;17.08;11.63;;;;;;;;;;5049248;28;20051;-64
2021/07/27 12:44:18;;;;;;;19.52;12.00;;;;;;;;;;5045801;28;20040;-64
2021/07/27 12:46:44;;;;;;;28.25;13.93;;;;;;;;;;5041994;28;20448;-64
2021/07/27 12:49:13;;;;;;;21.50;13.93;;;;;;;;;;5043287;28;20025;-63
2021/07/27 12:51:40;;;;;;;22.73;14.23;;;;;;;;;;5045160;28;20576;-64
2021/07/27 12:54:06;;;;;;;22.67;13.13;;;;;;;;;;5045566;28;20040;-64
2021/07/27 12:56:34;;;;;;;22.67;15.48;;;;;;;;;;5042501;28;20504;-64
2021/07/27 12:59:00;;;;;;;23.48;15.00;;;;;;;;;;5047354;28;20067;-64
2021/07/27 13:01:26;;;;;;;22.95;13.50;;;;;;;;;;5045040;28;20025;-64
2021/07/27 13:03:52;;;;;;;21.73;14.15;;;;;;;;;;5047587;28;20025;-64
2021/07/27 13:06:18;;;;;;;24.98;15.43;;;;;;;;;;5044653;28;20033;-64
2021/07/27 13:08:44;;;;;;;29.85;17.80;;;;;;;;;;5047863;28;20024;-68
2021/07/27 13:11:12;;;;;;;39.33;20.80;;;;;;;;;;5044080;28;20021;-66
2021/07/27 13:13:38;;;;;;;29.23;20.35;;;;;;;;;;5047009;28;20017;-68
2021/07/27 13:16:04;;;;;;;32.28;21.88;;;;;;;;;;5042931;28;20364;-68
2021/07/27 13:18:30;;;;;;;34.47;21.00;;;;;;;;;;5047590;28;20031;-67
2021/07/27 13:20:56;;;;;;;32.70;21.67;;;;;;;;;;5050577;28;20147;-67
2021/07/27 13:23:22;;;;;;;33.72;21.52;;;;;;;;;;5044838;28;20397;-66
2021/07/27 13:25:48;;;;;;;40.58;26.05;;;;;;;;;;5047449;28;20032;-66
2021/07/27 13:28:14;;;;;;;38.35;24.38;;;;;;;;;;5045831;28;21417;-66
2021/07/27 13:30:40;;;;;;;35.92;24.25;;;;;;;;;;5045308;28;20048;-66
2021/07/27 13:33:07;;;;;;;36.38;25.13;;;;;;;;;;5045207;28;20021;-66
2021/07/27 13:35:33;;;;;;;40.85;25.67;;;;;;;;;;5049597;28;20200;-65
2021/07/27 13:37:59;;;;;;;38.17;25.55;;;;;;;;;;5052152;28;20021;-66
2021/07/27 13:40:25;;;;;;;36.67;25.60;;;;;;;;;;5043193;28;20033;-66
2021/07/27 13:42:51;;;;;;;45.70;25.73;;;;;;;;;;5046111;28;20521;-66
2021/07/27 13:45:17;;;;;;;44.22;26.63;;;;;;;;;;5044127;28;20578;-65
2021/07/27 13:47:43;;;;;;;44.40;25.80;;;;;;;;;;5063508;28;20032;-66
2021/07/27 13:50:09;;;;;;;41.63;26.58;;;;;;;;;;5047710;28;20025;-67
2021/07/27 13:52:35;;;;;;;46.28;28.48;;;;;;;;;;5045059;28;20630;-65
2021/07/27 13:55:01;;;;;;;51.88;31.23;;;;;;;;;;5043701;28;20048;-66
2021/07/27 13:57:27;;;;;;;42.95;27.63;;;;;;;;;;5046058;28;20037;-68
2021/07/27 13:59:54;;;;;;;46.75;30.63;;;;;;;;;;5046524;28;20024;-68
2021/07/27 14:02:20;;;;;;;41.85;28.83;;;;;;;;;;5048710;28;20097;-67
2021/07/27 14:04:46;;;;;;;44.63;29.15;;;;;;;;;;5038581;28;20064;-67
2021/07/27 14:07:14;;;;;;;43.40;29.15;;;;;;;;;;5048762;28;20028;-67
2021/07/27 14:09:40;;;;;;;41.95;23.08;;;;;;;;;;5049426;28;20025;-66
2021/07/27 14:12:07;;;;;;;51.20;21.23;;;;;;;;;;5040672;28;20044;-67
2021/07/27 14:14:33;;;;;;;42.70;16.58;;;;;;;;;;5041348;28;20558;-66
2021/07/27 14:17:00;;;;;;;15.20;6.72;;;;;;;;;;5049251;28;20558;-63
2021/07/27 14:19:26;;;;;;;10.35;5.50;;;;;;;;;;5045223;28;20052;-64
2021/07/27 14:21:52;;;;;;;13.75;6.57;;;;;;;;;;5049845;28;20032;-64
2021/07/27 14:24:18;;;;;;;16.77;6.68;;;;;;;;;;5048897;28;20039;-64
2021/07/27 14:26:44;;;;;;;11.80;6.18;;;;;;;;;;5047942;28;20566;-65
2021/07/27 14:29:10;;;;;;;15.30;6.75;;;;;;;;;;5050417;28;20021;-65
2021/07/27 14:31:36;;;;;;;15.68;4.88;;;;;;;;;;5050331;28;20017;-65
2021/07/27 14:34:03;;;;;;;14.40;5.90;;;;;;;;;;5048483;28;20523;-64
2021/07/27 14:36:29;;;;;;;19.17;7.63;;;;;;;;;;5047354;28;20124;-63
2021/07/27 14:38:55;;;;;;;15.27;6.22;;;;;;;;;;5060219;28;20034;-63
2021/07/27 14:41:21;;;;;;;13.18;5.78;;;;;;;;;;5054240;28;20047;-64
2021/07/27 14:43:47;;;;;;;13.65;5.13;;;;;;;;;;5057983;28;20119;-64
2021/07/27 14:46:13;;;;;;;9.80;4.43;;;;;;;;;;5056275;28;20373;-65